Time;durP1;ratioP1;P1;durP2;ratioP2;P2;SDS_P1;SDS_P2;PMS_P1;PMS_P2;Temp;Humidity;BMP_temperature;BMP_pressure;BME280_temperature;BME280_humidity;BME280_pressure;Samples;Min_cycle;Max_cycle;Signal;HPM_P1;HPM_P2
2022/03/13 00:00:47;;;;;;;14.60;9.90;;;;;;;;;;5011744;28;20416;-52
2022/03/13 00:03:14;;;;;;;15.33;9.30;;;;;;;;;;5011933;28;20420;-52
2022/03/13 00:05:41;;;;;;;18.93;8.73;;;;;;;;;;5012142;28;20396;-50
2022/03/13 00:08:38;;;;;;;14.00;8.47;;;;;;;;;;5012036;28;20397;-51
2022/03/13 00:11:07;;;;;;;14.53;8.37;;;;;;;;;;4995630;28;20472;-51
2022/03/13 00:13:35;;;;;;;13.63;8.30;;;;;;;;;;5012006;28;20481;-52
2022/03/13 00:16:03;;;;;;;15.40;9.23;;;;;;;;;;5012093;28;20394;-53
2022/03/13 00:18:30;;;;;;;10.50;7.90;;;;;;;;;;5011966;28;20410;-53
2022/03/13 00:20:57;;;;;;;11.57;8.00;;;;;;;;;;5011631;28;20428;-52
2022/03/13 00:23:23;;;;;;;13.33;8.70;;;;;;;;;;5011767;28;20450;-52
2022/03/13 00:25:49;;;;;;;9.80;8.00;;;;;;;;;;5011714;28;20404;-52
2022/03/13 00:28:15;;;;;;;11.00;8.40;;;;;;;;;;5011764;28;20406;-52
2022/03/13 00:30:42;;;;;;;14.20;8.63;;;;;;;;;;5011614;28;20508;-50
2022/03/13 00:33:08;;;;;;;10.23;7.93;;;;;;;;;;5011735;28;20466;-52
2022/03/13 00:35:34;;;;;;;11.93;8.47;;;;;;;;;;5011692;28;20406;-52
2022/03/13 00:38:00;;;;;;;14.90;8.90;;;;;;;;;;5011751;28;20490;-51
2022/03/13 00:40:26;;;;;;;11.57;9.20;;;;;;;;;;5011437;28;20498;-52
2022/03/13 00:42:52;;;;;;;13.27;8.10;;;;;;;;;;5013245;28;20407;-52
2022/03/13 00:45:18;;;;;;;11.47;8.53;;;;;;;;;;4997989;28;20414;-51
2022/03/13 00:47:44;;;;;;;11.67;8.53;;;;;;;;;;5015567;28;20409;-52
2022/03/13 00:50:11;;;;;;;14.37;8.90;;;;;;;;;;5015273;28;20443;-50
2022/03/13 00:52:36;;;;;;;12.50;9.17;;;;;;;;;;5015337;28;20448;-53
2022/03/13 00:55:03;;;;;;;11.07;8.80;;;;;;;;;;5015413;28;20398;-51
2022/03/13 00:57:29;;;;;;;14.37;7.97;;;;;;;;;;5015542;28;20403;-51
2022/03/13 00:59:55;;;;;;;16.20;7.93;;;;;;;;;;5015092;28;20766;-52
2022/03/13 01:02:21;;;;;;;11.97;8.43;;;;;;;;;;5015072;28;20482;-51
2022/03/13 01:04:47;;;;;;;11.43;8.43;;;;;;;;;;5015270;28;20926;-51
2022/03/13 01:07:14;;;;;;;12.00;9.63;;;;;;;;;;5015110;28;20463;-52
2022/03/13 01:09:41;;;;;;;11.83;8.53;;;;;;;;;;5014910;28;20408;-52
2022/03/13 01:12:07;;;;;;;11.83;8.70;;;;;;;;;;5014935;28;20872;-51
2022/03/13 01:14:34;;;;;;;18.10;8.50;;;;;;;;;;5015157;28;20400;-51
2022/03/13 01:17:01;;;;;;;9.80;8.53;;;;;;;;;;4997436;28;20507;-51
2022/03/13 01:19:27;;;;;;;11.00;7.47;;;;;;;;;;5014709;28;20416;-51
2022/03/13 01:21:53;;;;;;;11.40;8.37;;;;;;;;;;5014653;28;20430;-51
2022/03/13 01:24:20;;;;;;;13.33;8.50;;;;;;;;;;5015057;28;20894;-51
2022/03/13 01:26:54;;;;;;;12.20;8.23;;;;;;;;;;5014837;28;20408;-50
2022/03/13 01:29:20;;;;;;;10.90;8.00;;;;;;;;;;5014565;28;20417;-51
2022/03/13 01:31:47;;;;;;;11.13;8.10;;;;;;;;;;5014698;28;20459;-51
2022/03/13 01:34:14;;;;;;;9.67;8.43;;;;;;;;;;5014714;28;20412;-49
2022/03/13 01:36:40;;;;;;;11.70;8.17;;;;;;;;;;5014501;28;20773;-50
2022/03/13 01:39:06;;;;;;;11.07;8.30;;;;;;;;;;5014557;28;20402;-52
2022/03/13 01:41:34;;;;;;;13.37;8.87;;;;;;;;;;5014350;28;20428;-51
2022/03/13 01:44:00;;;;;;;12.83;8.80;;;;;;;;;;5014416;28;20403;-52
2022/03/13 01:46:27;;;;;;;19.73;8.90;;;;;;;;;;5014666;28;20405;-52
2022/03/13 01:48:53;;;;;;;12.67;8.03;;;;;;;;;;5014337;28;20417;-51
2022/03/13 01:51:19;;;;;;;13.03;8.63;;;;;;;;;;5013953;28;20474;-51
2022/03/13 01:53:45;;;;;;;14.40;8.70;;;;;;;;;;5013602;28;20503;-51
2022/03/13 01:56:11;;;;;;;14.00;8.90;;;;;;;;;;5014233;28;20395;-51
2022/03/13 01:58:37;;;;;;;18.30;10.03;;;;;;;;;;5014278;28;20494;-53
2022/03/13 02:01:03;;;;;;;14.93;9.07;;;;;;;;;;5013640;28;20423;-51
2022/03/13 02:03:29;;;;;;;11.60;8.23;;;;;;;;;;5013397;28;20881;-51
2022/03/13 02:05:55;;;;;;;11.33;9.57;;;;;;;;;;5013654;28;20491;-52
2022/03/13 02:08:22;;;;;;;10.77;7.87;;;;;;;;;;5013774;28;20407;-50
2022/03/13 02:10:49;;;;;;;11.82;8.27;;;;;;;;;;5013993;28;20423;-50
2022/03/13 02:13:17;;;;;;;13.10;8.67;;;;;;;;;;5013915;28;20226;-52
2022/03/13 02:15:43;;;;;;;20.30;7.93;;;;;;;;;;5014003;28;20433;-53
2022/03/13 02:18:09;;;;;;;12.50;8.37;;;;;;;;;;5013796;28;20774;-52
2022/03/13 02:20:39;;;;;;;11.77;8.60;;;;;;;;;;5013648;28;20927;-52
2022/03/13 02:23:14;;;;;;;9.87;7.83;;;;;;;;;;5013856;28;20418;-52
2022/03/13 02:25:40;;;;;;;11.90;8.30;;;;;;;;;;5014016;28;20701;-52
2022/03/13 02:28:06;;;;;;;12.97;8.80;;;;;;;;;;5013842;28;20449;-53
2022/03/13 02:30:32;;;;;;;10.20;7.80;;;;;;;;;;5013398;28;20501;-52
2022/03/13 02:32:58;;;;;;;12.33;8.27;;;;;;;;;;5013580;28;20451;-51
2022/03/13 02:35:25;;;;;;;10.00;7.77;;;;;;;;;;5016783;28;20410;-50
2022/03/13 02:37:51;;;;;;;16.30;8.40;;;;;;;;;;5004808;28;20940;-52
2022/03/13 02:40:20;;;;;;;10.33;8.03;;;;;;;;;;5013531;28;20436;-52
2022/03/13 02:42:46;;;;;;;10.75;7.97;;;;;;;;;;5013479;28;20432;-51
2022/03/13 02:45:12;;;;;;;12.97;8.40;;;;;;;;;;5013424;28;20619;-51
2022/03/13 02:47:38;;;;;;;10.53;8.73;;;;;;;;;;5013470;28;20406;-51
2022/03/13 02:50:04;;;;;;;10.27;7.90;;;;;;;;;;5013170;28;20428;-52
2022/03/13 02:52:30;;;;;;;11.10;7.77;;;;;;;;;;5013181;28;20455;-53
2022/03/13 02:54:56;;;;;;;13.83;8.37;;;;;;;;;;5013340;28;20417;-52
2022/03/13 02:57:22;;;;;;;14.07;8.20;;;;;;;;;;5013347;28;20396;-52
2022/03/13 02:59:47;;;;;;;10.97;8.20;;;;;;;;;;5013022;28;20397;-49
2022/03/13 03:02:13;;;;;;;13.20;8.80;;;;;;;;;;5012877;28;20427;-49
2022/03/13 03:04:43;;;;;;;12.03;9.57;;;;;;;;;;5013167;28;20461;-50
2022/03/13 03:07:09;;;;;;;11.67;7.57;;;;;;;;;;5012929;28;20400;-50
2022/03/13 03:09:36;;;;;;;11.60;8.87;;;;;;;;;;5012824;28;20908;-50
2022/03/13 03:12:04;;;;;;;15.83;8.10;;;;;;;;;;5012953;28;20494;-49
2022/03/13 03:14:31;;;;;;;9.73;7.80;;;;;;;;;;5012924;28;20437;-49
2022/03/13 03:16:58;;;;;;;12.33;7.90;;;;;;;;;;5012922;28;20395;-50
2022/03/13 03:19:24;;;;;;;14.33;7.97;;;;;;;;;;5012587;28;20790;-51
2022/03/13 03:21:52;;;;;;;16.20;7.60;;;;;;;;;;5012631;28;20932;-49
2022/03/13 03:24:19;;;;;;;13.67;8.17;;;;;;;;;;5012912;28;20170;-49
2022/03/13 03:26:45;;;;;;;11.77;7.20;;;;;;;;;;4995125;28;20451;-49
2022/03/13 03:29:12;;;;;;;11.50;8.55;;;;;;;;;;5012642;28;20408;-49
2022/03/13 03:31:42;;;;;;;12.50;8.20;;;;;;;;;;5012398;28;20239;-49
2022/03/13 03:34:09;;;;;;;10.83;7.53;;;;;;;;;;5012598;28;20836;-49
2022/03/13 03:36:39;;;;;;;14.30;8.20;;;;;;;;;;5012676;28;20487;-49
2022/03/13 03:39:06;;;;;;;12.10;8.25;;;;;;;;;;4995012;28;20932;-50
2022/03/13 03:41:32;;;;;;;11.63;8.23;;;;;;;;;;5012226;28;20572;-49
2022/03/13 03:43:58;;;;;;;10.07;7.70;;;;;;;;;;5012418;28;20196;-50
2022/03/13 03:46:24;;;;;;;12.10;8.50;;;;;;;;;;5012422;28;20898;-50
2022/03/13 03:48:50;;;;;;;14.70;8.33;;;;;;;;;;5012345;28;20442;-49
2022/03/13 03:51:16;;;;;;;11.30;8.63;;;;;;;;;;5012197;28;20823;-49
2022/03/13 03:53:42;;;;;;;14.77;8.30;;;;;;;;;;5012207;28;20400;-49
2022/03/13 03:56:08;;;;;;;12.00;8.60;;;;;;;;;;5012267;28;20404;-50
2022/03/13 03:58:34;;;;;;;14.00;8.57;;;;;;;;;;5012460;28;20401;-50
2022/03/13 04:01:00;;;;;;;13.13;8.10;;;;;;;;;;5011945;28;20423;-49
2022/03/13 04:03:26;;;;;;;11.10;8.00;;;;;;;;;;5011999;28;20574;-49
2022/03/13 04:05:52;;;;;;;13.80;8.60;;;;;;;;;;5012137;28;20415;-49
2022/03/13 04:08:18;;;;;;;13.73;8.67;;;;;;;;;;5012136;28;20413;-49
2022/03/13 04:10:44;;;;;;;12.10;7.87;;;;;;;;;;5011830;28;20423;-50
2022/03/13 04:13:10;;;;;;;15.70;8.60;;;;;;;;;;5012160;28;20811;-50
2022/03/13 04:15:37;;;;;;;17.00;9.50;;;;;;;;;;4994679;28;20453;-49
2022/03/13 04:18:02;;;;;;;13.57;8.20;;;;;;;;;;5011589;28;20410;-49
2022/03/13 04:20:29;;;;;;;12.77;8.97;;;;;;;;;;5011745;28;20419;-50
2022/03/13 04:22:55;;;;;;;13.52;8.57;;;;;;;;;;4994418;28;20412;-49
2022/03/13 04:25:22;;;;;;;11.33;7.83;;;;;;;;;;5012005;28;20543;-49
2022/03/13 04:27:48;;;;;;;13.20;7.60;;;;;;;;;;5011994;28;20423;-49
2022/03/13 04:30:14;;;;;;;12.90;8.70;;;;;;;;;;5011658;28;20942;-48
2022/03/13 04:32:41;;;;;;;13.43;7.80;;;;;;;;;;5011799;28;20459;-49
2022/03/13 04:35:07;;;;;;;10.30;7.90;;;;;;;;;;5011916;28;20395;-49
2022/03/13 04:37:33;;;;;;;12.27;8.57;;;;;;;;;;5011861;28;20404;-50
2022/03/13 04:39:59;;;;;;;12.57;8.20;;;;;;;;;;5011618;28;20534;-50
2022/03/13 04:42:25;;;;;;;16.27;9.60;;;;;;;;;;4994149;28;20422;-49
2022/03/13 04:44:52;;;;;;;13.10;9.10;;;;;;;;;;5012104;28;20919;-50
2022/03/13 04:47:17;;;;;;;10.35;7.22;;;;;;;;;;5011637;28;20915;-51
2022/03/13 04:49:43;;;;;;;12.53;8.07;;;;;;;;;;5011651;28;20175;-50
2022/03/13 04:52:10;;;;;;;12.17;7.97;;;;;;;;;;5011590;28;20450;-49
2022/03/13 04:54:36;;;;;;;12.48;8.00;;;;;;;;;;5011693;28;20410;-50
2022/03/13 04:57:03;;;;;;;12.87;8.13;;;;;;;;;;5011747;28;20636;-50
2022/03/13 04:59:29;;;;;;;11.55;8.48;;;;;;;;;;5011521;28;20510;-50
2022/03/13 05:01:55;;;;;;;10.00;7.70;;;;;;;;;;5011482;28;20189;-50
2022/03/13 05:04:21;;;;;;;14.23;8.40;;;;;;;;;;5011647;28;20506;-49
2022/03/13 05:06:47;;;;;;;12.33;7.77;;;;;;;;;;5011484;28;20835;-50
2022/03/13 05:09:13;;;;;;;10.47;8.03;;;;;;;;;;5011622;28;20780;-50
2022/03/13 05:11:39;;;;;;;11.63;8.38;;;;;;;;;;4994027;28;20508;-50
2022/03/13 05:14:05;;;;;;;10.88;7.30;;;;;;;;;;5011567;28;20188;-49
2022/03/13 05:16:31;;;;;;;11.37;8.33;;;;;;;;;;5011601;28;20165;-49
2022/03/13 05:18:57;;;;;;;13.65;8.80;;;;;;;;;;5011433;28;20403;-50
2022/03/13 05:21:23;;;;;;;12.10;7.70;;;;;;;;;;5011324;28;20197;-50
2022/03/13 05:23:49;;;;;;;12.57;7.50;;;;;;;;;;5011576;28;20932;-49
2022/03/13 05:26:15;;;;;;;12.83;8.07;;;;;;;;;;5011467;28;20939;-50
2022/03/13 05:28:41;;;;;;;14.07;8.50;;;;;;;;;;5011493;28;20411;-50
2022/03/13 05:31:07;;;;;;;13.70;8.00;;;;;;;;;;5014259;28;20477;-50
2022/03/13 05:33:34;;;;;;;12.00;7.65;;;;;;;;;;5014844;28;20465;-49
2022/03/13 05:36:00;;;;;;;15.55;8.65;;;;;;;;;;5014697;28;20161;-50
2022/03/13 05:38:27;;;;;;;10.90;7.57;;;;;;;;;;5014874;28;20169;-50
2022/03/13 05:40:53;;;;;;;11.00;8.47;;;;;;;;;;4996893;28;20913;-49
2022/03/13 05:43:25;;;;;;;12.32;7.90;;;;;;;;;;5014709;28;20414;-51
2022/03/13 05:45:51;;;;;;;10.40;8.43;;;;;;;;;;4997071;28;20172;-49
2022/03/13 05:48:18;;;;;;;14.67;8.97;;;;;;;;;;5014591;28;20462;-50
2022/03/13 05:50:44;;;;;;;15.63;8.93;;;;;;;;;;5014280;28;20519;-49
2022/03/13 05:53:10;;;;;;;13.17;8.10;;;;;;;;;;5014344;28;20451;-49
2022/03/13 05:55:36;;;;;;;14.77;9.50;;;;;;;;;;5014415;28;20426;-50
2022/03/13 05:58:02;;;;;;;16.43;8.63;;;;;;;;;;5014542;28;21095;-49
2022/03/13 06:00:32;;;;;;;16.00;9.15;;;;;;;;;;5014131;28;20918;-50
2022/03/13 06:02:58;;;;;;;12.53;9.40;;;;;;;;;;5014003;28;20180;-51
2022/03/13 06:05:24;;;;;;;17.33;9.10;;;;;;;;;;5014307;28;20916;-50
2022/03/13 06:07:51;;;;;;;10.73;7.57;;;;;;;;;;5014162;28;20482;-50
2022/03/13 06:10:17;;;;;;;13.73;10.13;;;;;;;;;;5013951;28;20426;-50
2022/03/13 06:12:43;;;;;;;13.27;9.77;;;;;;;;;;5014047;28;20455;-50
2022/03/13 06:15:11;;;;;;;13.57;8.80;;;;;;;;;;5014144;28;20426;-49
2022/03/13 06:17:39;;;;;;;11.53;8.30;;;;;;;;;;5013967;28;20428;-50
2022/03/13 06:20:07;;;;;;;16.35;9.18;;;;;;;;;;5013698;28;20403;-50
2022/03/13 06:22:33;;;;;;;14.07;9.20;;;;;;;;;;5013929;28;20259;-50
2022/03/13 06:24:59;;;;;;;12.33;7.60;;;;;;;;;;5014039;28;20797;-50
2022/03/13 06:27:25;;;;;;;12.17;8.10;;;;;;;;;;5013986;28;20470;-50
2022/03/13 06:29:51;;;;;;;13.07;8.43;;;;;;;;;;5013563;28;20412;-50
2022/03/13 06:32:18;;;;;;;12.77;8.37;;;;;;;;;;5013624;28;20483;-50
2022/03/13 06:34:44;;;;;;;13.20;8.13;;;;;;;;;;5013788;28;20820;-50
2022/03/13 06:37:10;;;;;;;10.90;8.40;;;;;;;;;;5013722;28;20414;-50
2022/03/13 06:39:36;;;;;;;11.70;8.63;;;;;;;;;;5013424;28;20400;-53
2022/03/13 06:42:03;;;;;;;14.60;7.87;;;;;;;;;;5013255;28;20431;-52
2022/03/13 06:44:30;;;;;;;12.83;9.00;;;;;;;;;;5013732;28;20809;-52
2022/03/13 06:46:56;;;;;;;14.80;9.33;;;;;;;;;;5013635;28;20412;-53
2022/03/13 06:49:22;;;;;;;15.23;11.90;;;;;;;;;;5013265;28;20404;-51
2022/03/13 06:51:48;;;;;;;14.93;10.03;;;;;;;;;;5013467;28;20456;-53
2022/03/13 06:54:14;;;;;;;12.30;9.00;;;;;;;;;;5013556;28;20431;-52
2022/03/13 06:56:40;;;;;;;13.03;9.70;;;;;;;;;;5013580;28;20399;-53
2022/03/13 06:59:06;;;;;;;12.83;9.20;;;;;;;;;;5013415;28;20410;-53
2022/03/13 07:01:36;;;;;;;15.80;10.13;;;;;;;;;;5012860;28;20432;-52
2022/03/13 07:04:02;;;;;;;17.67;9.57;;;;;;;;;;5013147;28;20425;-52
2022/03/13 07:06:28;;;;;;;14.83;10.60;;;;;;;;;;5013242;28;20417;-53
2022/03/13 07:08:55;;;;;;;14.23;9.90;;;;;;;;;;5013410;28;20412;-51
2022/03/13 07:11:22;;;;;;;13.17;8.80;;;;;;;;;;5012785;28;20431;-51
2022/03/13 07:13:48;;;;;;;15.63;10.17;;;;;;;;;;5012497;28;20406;-52
2022/03/13 07:16:15;;;;;;;15.63;9.83;;;;;;;;;;5013061;28;20435;-53
2022/03/13 07:18:42;;;;;;;13.30;9.93;;;;;;;;;;5013045;28;20403;-54
2022/03/13 07:21:08;;;;;;;14.03;9.67;;;;;;;;;;5012810;28;20419;-52
2022/03/13 07:23:34;;;;;;;12.60;9.00;;;;;;;;;;5012815;28;20395;-51
2022/03/13 07:26:00;;;;;;;12.80;9.10;;;;;;;;;;5012949;28;20510;-50
2022/03/13 07:28:26;;;;;;;11.37;8.23;;;;;;;;;;5012431;28;20453;-48
2022/03/13 07:30:52;;;;;;;13.47;8.63;;;;;;;;;;5000926;28;20398;-48
2022/03/13 07:33:18;;;;;;;11.90;9.17;;;;;;;;;;4999785;28;20485;-48
2022/03/13 07:35:44;;;;;;;14.67;9.20;;;;;;;;;;5012314;28;20467;-48
2022/03/13 07:38:10;;;;;;;9.97;7.60;;;;;;;;;;5012824;28;20409;-48
2022/03/13 07:40:37;;;;;;;16.83;10.43;;;;;;;;;;5012257;28;20918;-48
2022/03/13 07:43:03;;;;;;;13.87;9.10;;;;;;;;;;4994928;28;20910;-47
2022/03/13 07:45:30;;;;;;;17.47;10.10;;;;;;;;;;5012618;28;20763;-51
2022/03/13 07:47:57;;;;;;;13.03;9.30;;;;;;;;;;4994502;28;20416;-51
2022/03/13 07:50:24;;;;;;;11.57;8.73;;;;;;;;;;4992637;28;20459;-48
2022/03/13 07:52:50;;;;;;;11.37;8.90;;;;;;;;;;4992016;28;21049;-48
2022/03/13 07:55:16;;;;;;;13.27;8.37;;;;;;;;;;4992973;28;20906;-49
2022/03/13 07:57:42;;;;;;;15.53;9.80;;;;;;;;;;4992778;28;20450;-49
2022/03/13 08:00:10;;;;;;;9.87;8.67;;;;;;;;;;4992623;28;20405;-48
2022/03/13 08:02:36;;;;;;;10.60;8.33;;;;;;;;;;4992660;28;20433;-48
2022/03/13 08:05:03;;;;;;;14.63;9.00;;;;;;;;;;4994406;28;20414;-48
2022/03/13 08:07:29;;;;;;;13.50;9.30;;;;;;;;;;5011778;28;20449;-48
2022/03/13 08:09:55;;;;;;;15.20;10.60;;;;;;;;;;5011700;28;20914;-48
2022/03/13 08:12:21;;;;;;;14.07;9.60;;;;;;;;;;5011926;28;20440;-49
2022/03/13 08:14:49;;;;;;;11.37;8.93;;;;;;;;;;5011882;28;20397;-48
2022/03/13 08:17:15;;;;;;;11.67;9.53;;;;;;;;;;5012095;28;21105;-47
2022/03/13 08:19:42;;;;;;;15.80;10.63;;;;;;;;;;5011757;28;20429;-48
2022/03/13 08:22:08;;;;;;;14.27;10.10;;;;;;;;;;5011656;28;20441;-47
2022/03/13 08:24:34;;;;;;;16.47;10.23;;;;;;;;;;5011789;28;21088;-48
2022/03/13 08:27:00;;;;;;;14.17;10.27;;;;;;;;;;5011835;28;20925;-53
2022/03/13 08:29:26;;;;;;;15.00;11.00;;;;;;;;;;4994136;28;20419;-53
2022/03/13 08:31:52;;;;;;;13.67;10.33;;;;;;;;;;5011650;28;20463;-53
2022/03/13 08:34:19;;;;;;;14.07;10.17;;;;;;;;;;5009747;28;20416;-53
2022/03/13 08:36:49;;;;;;;13.97;10.47;;;;;;;;;;4992497;28;20495;-51
2022/03/13 08:39:15;;;;;;;16.80;11.07;;;;;;;;;;5001544;28;20469;-53
2022/03/13 08:41:41;;;;;;;13.43;9.37;;;;;;;;;;5011763;28;20920;-53
2022/03/13 08:44:08;;;;;;;14.00;10.07;;;;;;;;;;5011879;28;20407;-53
2022/03/13 08:46:35;;;;;;;12.57;9.70;;;;;;;;;;5011951;28;20411;-52
2022/03/13 08:49:01;;;;;;;15.03;10.43;;;;;;;;;;5011910;28;20438;-53
2022/03/13 08:51:27;;;;;;;18.60;10.97;;;;;;;;;;5001811;28;20514;-52
2022/03/13 08:53:53;;;;;;;15.90;10.30;;;;;;;;;;4992177;28;20754;-49
2022/03/13 08:56:20;;;;;;;14.80;11.47;;;;;;;;;;4992489;28;20381;-48
2022/03/13 08:58:46;;;;;;;19.80;10.60;;;;;;;;;;4992218;28;20862;-48
2022/03/13 09:01:12;;;;;;;12.53;10.90;;;;;;;;;;4991928;28;20423;-51
2022/03/13 09:03:38;;;;;;;15.50;10.60;;;;;;;;;;4993115;28;20397;-52
2022/03/13 09:06:04;;;;;;;16.30;12.03;;;;;;;;;;4996141;28;20869;-51
2022/03/13 09:08:30;;;;;;;16.70;10.53;;;;;;;;;;4995821;28;20446;-50
2022/03/13 09:10:56;;;;;;;13.97;10.33;;;;;;;;;;4996093;28;20442;-51
2022/03/13 09:13:22;;;;;;;23.50;12.77;;;;;;;;;;4995865;28;20459;-51
2022/03/13 09:15:48;;;;;;;15.10;11.80;;;;;;;;;;4995915;28;20411;-51
2022/03/13 09:18:15;;;;;;;15.17;11.53;;;;;;;;;;4995883;28;20419;-49
2022/03/13 09:20:41;;;;;;;16.07;12.13;;;;;;;;;;4995247;28;20433;-49
2022/03/13 09:23:07;;;;;;;14.57;10.87;;;;;;;;;;4995587;28;20400;-49
2022/03/13 09:25:34;;;;;;;14.83;12.10;;;;;;;;;;4995634;28;20403;-49
2022/03/13 09:28:00;;;;;;;14.47;11.80;;;;;;;;;;5005252;28;20422;-48
2022/03/13 09:30:26;;;;;;;21.53;12.90;;;;;;;;;;5014886;28;20476;-49
2022/03/13 09:32:52;;;;;;;17.00;11.87;;;;;;;;;;5015009;28;20463;-49
2022/03/13 09:35:18;;;;;;;15.00;11.00;;;;;;;;;;5014986;28;20399;-49
2022/03/13 09:37:44;;;;;;;14.83;11.63;;;;;;;;;;5014895;28;20435;-48
2022/03/13 09:40:11;;;;;;;15.30;11.00;;;;;;;;;;5014632;28;20422;-49
2022/03/13 09:42:37;;;;;;;16.60;11.00;;;;;;;;;;5014694;28;20410;-48
2022/03/13 09:45:04;;;;;;;15.33;12.07;;;;;;;;;;5014898;28;20406;-52
2022/03/13 09:47:31;;;;;;;13.73;11.27;;;;;;;;;;5014775;28;20413;-50
2022/03/13 09:49:57;;;;;;;23.03;11.97;;;;;;;;;;5014363;28;20395;-49
2022/03/13 09:52:23;;;;;;;17.00;11.47;;;;;;;;;;5014550;28;20988;-49
2022/03/13 09:54:50;;;;;;;17.20;12.80;;;;;;;;;;5014724;28;20490;-49
2022/03/13 09:57:17;;;;;;;15.60;11.00;;;;;;;;;;5014625;28;20410;-52
2022/03/13 09:59:45;;;;;;;16.47;11.80;;;;;;;;;;5014476;28;20894;-49
2022/03/13 10:02:11;;;;;;;15.07;11.57;;;;;;;;;;5014337;28;20431;-49
2022/03/13 10:04:37;;;;;;;15.80;11.83;;;;;;;;;;5014605;28;20427;-50
2022/03/13 10:07:04;;;;;;;13.80;10.97;;;;;;;;;;5014330;28;20423;-49
2022/03/13 10:09:30;;;;;;;17.80;12.60;;;;;;;;;;5014127;28;20413;-49
2022/03/13 10:12:23;;;;;;;21.83;14.67;;;;;;;;;;5014271;28;20936;-50
2022/03/13 10:14:58;;;;;;;17.17;12.00;;;;;;;;;;5010892;28;20416;-49
2022/03/13 10:17:34;;;;;;;13.90;11.70;;;;;;;;;;5014181;28;20463;-52
2022/03/13 10:20:17;;;;;;;15.03;11.70;;;;;;;;;;5013933;28;20536;-52
2022/03/13 10:22:47;;;;;;;14.63;12.33;;;;;;;;;;5013924;28;20407;-50
2022/03/13 10:25:15;;;;;;;17.30;11.50;;;;;;;;;;5013928;28;20410;-49
2022/03/13 10:27:43;;;;;;;14.30;11.00;;;;;;;;;;5006773;28;20415;-51
2022/03/13 10:30:09;;;;;;;14.13;11.37;;;;;;;;;;4994232;28;20403;-52
2022/03/13 10:32:35;;;;;;;13.53;11.33;;;;;;;;;;4994243;28;20486;-52
2022/03/13 10:35:01;;;;;;;14.00;11.93;;;;;;;;;;4994471;28;20407;-54
2022/03/13 10:37:35;;;;;;;13.23;11.07;;;;;;;;;;4994222;28;20407;-54
2022/03/13 10:40:08;;;;;;;13.10;10.63;;;;;;;;;;5010295;28;20445;-52
2022/03/13 10:42:43;;;;;;;14.60;10.60;;;;;;;;;;5005257;28;20424;-50
2022/03/13 10:45:10;;;;;;;17.63;11.50;;;;;;;;;;5000448;28;20422;-49
2022/03/13 10:47:37;;;;;;;14.13;10.70;;;;;;;;;;5004270;28;20926;-51
2022/03/13 10:50:03;;;;;;;14.40;11.50;;;;;;;;;;5003526;28;20455;-52
2022/03/13 10:52:31;;;;;;;17.60;11.17;;;;;;;;;;5006226;28;20936;-52
2022/03/13 10:55:00;;;;;;;12.93;10.50;;;;;;;;;;5003604;28;20461;-52
2022/03/13 10:57:26;;;;;;;11.63;10.33;;;;;;;;;;5006610;28;20908;-51
2022/03/13 11:00:07;;;;;;;12.30;10.30;;;;;;;;;;5000452;28;20414;-52
2022/03/13 11:02:33;;;;;;;11.50;10.30;;;;;;;;;;5001250;28;20434;-52
2022/03/13 11:05:00;;;;;;;11.50;9.63;;;;;;;;;;5012910;28;21094;-51
2022/03/13 11:07:27;;;;;;;11.60;10.27;;;;;;;;;;4994982;28;20451;-52
2022/03/13 11:09:55;;;;;;;11.10;9.67;;;;;;;;;;5012565;28;20456;-52
2022/03/13 11:12:23;;;;;;;11.20;10.03;;;;;;;;;;5021005;28;20498;-53
2022/03/13 11:14:50;;;;;;;10.83;9.73;;;;;;;;;;5005161;28;20471;-51
2022/03/13 11:17:18;;;;;;;12.30;10.20;;;;;;;;;;5011686;28;20515;-53
2022/03/13 11:19:45;;;;;;;11.03;8.73;;;;;;;;;;4992867;28;20939;-52
2022/03/13 11:22:11;;;;;;;11.57;10.33;;;;;;;;;;5010136;28;20467;-52
2022/03/13 11:24:39;;;;;;;14.07;10.50;;;;;;;;;;5017734;28;20473;-51
2022/03/13 11:27:08;;;;;;;11.10;8.97;;;;;;;;;;5012065;28;20514;-52
2022/03/13 11:29:42;;;;;;;11.03;9.40;;;;;;;;;;5010150;28;20418;-51
2022/03/13 11:32:38;;;;;;;14.93;10.40;;;;;;;;;;5003974;28;20454;-52
2022/03/13 11:35:13;;;;;;;11.00;9.53;;;;;;;;;;5003619;28;20810;-51
2022/03/13 11:37:39;;;;;;;11.33;9.17;;;;;;;;;;5004061;28;20510;-52
2022/03/13 11:40:07;;;;;;;13.80;9.47;;;;;;;;;;5011985;28;20586;-52
2022/03/13 11:42:48;;;;;;;13.20;10.13;;;;;;;;;;5019680;28;20426;-51
2022/03/13 11:45:30;;;;;;;11.13;9.30;;;;;;;;;;5003998;28;20911;-52
2022/03/13 11:48:19;;;;;;;13.30;9.07;;;;;;;;;;4998668;28;20413;-52
2022/03/13 11:50:51;;;;;;;11.10;9.50;;;;;;;;;;5000367;28;20509;-51
2022/03/13 11:53:20;;;;;;;10.60;9.27;;;;;;;;;;5010508;28;20454;-52
2022/03/13 11:56:02;;;;;;;10.80;9.70;;;;;;;;;;5008438;28;20408;-52
2022/03/13 11:58:47;;;;;;;12.10;10.90;;;;;;;;;;4995179;28;20419;-53
2022/03/13 12:01:18;;;;;;;12.73;9.30;;;;;;;;;;5004605;28;20468;-52
2022/03/13 12:06:41;;;;;;;12.50;10.70;;;;;;;;;;5012180;28;20407;-52
2022/03/13 12:09:08;;;;;;;11.47;9.10;;;;;;;;;;5018361;28;20421;-52
2022/03/13 12:11:38;;;;;;;11.73;9.27;;;;;;;;;;5011940;28;20509;-52
2022/03/13 12:14:09;;;;;;;9.93;8.93;;;;;;;;;;4998177;28;20507;-51
2022/03/13 12:16:35;;;;;;;11.30;9.50;;;;;;;;;;4983035;28;20422;-51
2022/03/13 12:19:01;;;;;;;10.23;9.10;;;;;;;;;;5008833;28;21071;-52
2022/03/13 12:21:27;;;;;;;12.23;8.70;;;;;;;;;;5005280;28;20493;-52
2022/03/13 12:23:56;;;;;;;9.50;8.50;;;;;;;;;;5011945;28;20422;-51
2022/03/13 12:26:27;;;;;;;11.43;9.17;;;;;;;;;;4986601;28;20471;-52
2022/03/13 12:28:57;;;;;;;10.30;8.33;;;;;;;;;;4992634;28;20424;-52
2022/03/13 12:31:24;;;;;;;11.77;9.03;;;;;;;;;;5004156;28;20526;-51
2022/03/13 12:33:51;;;;;;;9.67;8.67;;;;;;;;;;5007023;28;20458;-49
2022/03/13 12:36:19;;;;;;;8.63;7.50;;;;;;;;;;5007930;28;20430;-53
2022/03/13 12:38:49;;;;;;;8.80;7.90;;;;;;;;;;5002586;28;20469;-53
2022/03/13 12:41:15;;;;;;;7.83;7.03;;;;;;;;;;5007624;28;20954;-53
2022/03/13 12:44:04;;;;;;;8.13;7.33;;;;;;;;;;5009756;28;20519;-54
2022/03/13 12:46:31;;;;;;;10.27;7.70;;;;;;;;;;5008235;28;20419;-53
2022/03/13 12:48:58;;;;;;;10.57;6.67;;;;;;;;;;5014731;28;20484;-52
2022/03/13 12:51:41;;;;;;;7.93;7.17;;;;;;;;;;4997070;28;20447;-53
2022/03/13 12:54:09;;;;;;;7.00;6.07;;;;;;;;;;5024988;28;20422;-54
2022/03/13 12:56:39;;;;;;;7.37;6.50;;;;;;;;;;5014397;28;20434;-53
2022/03/13 12:59:05;;;;;;;9.20;7.33;;;;;;;;;;5011824;28;20415;-52
2022/03/13 13:01:31;;;;;;;7.67;6.60;;;;;;;;;;5014714;28;20439;-52
2022/03/13 13:03:57;;;;;;;7.50;6.47;;;;;;;;;;5003015;28;20804;-53
2022/03/13 13:06:38;;;;;;;8.97;7.37;;;;;;;;;;4978380;28;20470;-53
2022/03/13 13:09:04;;;;;;;7.23;6.53;;;;;;;;;;5024540;28;20488;-52
2022/03/13 13:11:35;;;;;;;7.80;7.00;;;;;;;;;;5020223;28;20423;-51
2022/03/13 13:14:02;;;;;;;8.27;7.37;;;;;;;;;;5015210;28;20407;-52
2022/03/13 13:16:31;;;;;;;8.10;7.30;;;;;;;;;;5014956;28;20399;-51
2022/03/13 13:18:58;;;;;;;8.27;7.47;;;;;;;;;;5015079;28;20399;-50
2022/03/13 13:21:34;;;;;;;7.03;6.33;;;;;;;;;;5014738;28;20485;-51
2022/03/13 13:24:00;;;;;;;6.93;6.20;;;;;;;;;;5030206;28;20490;-53
2022/03/13 13:26:40;;;;;;;6.50;5.83;;;;;;;;;;5015084;28;20565;-51
2022/03/13 13:29:06;;;;;;;6.47;5.87;;;;;;;;;;5015466;28;20403;-54
2022/03/13 13:31:32;;;;;;;7.63;6.80;;;;;;;;;;5013737;28;20439;-52
2022/03/13 13:33:58;;;;;;;6.27;5.67;;;;;;;;;;5010922;28;20477;-52
2022/03/13 13:36:24;;;;;;;7.10;6.20;;;;;;;;;;5013701;28;20426;-50
2022/03/13 13:39:04;;;;;;;9.00;6.53;;;;;;;;;;5014494;28;20423;-54
2022/03/13 13:41:32;;;;;;;5.67;5.17;;;;;;;;;;5013137;28;20434;-54
2022/03/13 13:44:00;;;;;;;5.93;5.33;;;;;;;;;;5013439;28;20423;-51
2022/03/13 13:46:33;;;;;;;8.87;7.10;;;;;;;;;;5013476;28;20509;-52
2022/03/13 13:48:59;;;;;;;6.27;5.63;;;;;;;;;;5014285;28;20851;-51
2022/03/13 13:51:30;;;;;;;5.60;5.10;;;;;;;;;;5011790;28;20970;-52
2022/03/13 13:54:06;;;;;;;6.60;5.10;;;;;;;;;;5012666;28;20486;-53
2022/03/13 13:56:52;;;;;;;5.50;5.00;;;;;;;;;;5010905;28;20784;-55
2022/03/13 13:59:21;;;;;;;5.07;4.63;;;;;;;;;;5020319;28;20494;-52
2022/03/13 14:02:19;;;;;;;6.27;4.83;;;;;;;;;;5014275;28;20430;-50
2022/03/13 14:04:47;;;;;;;6.00;4.87;;;;;;;;;;4993051;28;20419;-51
2022/03/13 14:07:13;;;;;;;5.50;4.93;;;;;;;;;;4993361;28;20399;-54
2022/03/13 14:09:40;;;;;;;6.20;4.43;;;;;;;;;;5032137;28;20955;-52
2022/03/13 14:12:07;;;;;;;5.33;4.80;;;;;;;;;;5014429;28;20462;-55
2022/03/13 14:14:33;;;;;;;5.10;4.60;;;;;;;;;;5014317;28;20495;-54
2022/03/13 14:16:59;;;;;;;5.23;4.70;;;;;;;;;;5014154;28;20399;-51
2022/03/13 14:19:30;;;;;;;7.10;4.67;;;;;;;;;;5013116;28;20426;-52
2022/03/13 14:21:56;;;;;;;24.73;19.13;;;;;;;;;;5013826;28;20443;-52
2022/03/13 14:24:22;;;;;;;6.60;5.80;;;;;;;;;;5014153;28;20411;-52
2022/03/13 14:26:49;;;;;;;5.37;4.90;;;;;;;;;;5029605;28;21032;-52
2022/03/13 14:29:15;;;;;;;5.60;5.00;;;;;;;;;;5021364;28;20423;-52
2022/03/13 14:31:41;;;;;;;6.80;5.63;;;;;;;;;;5013261;28;20473;-52
2022/03/13 14:34:07;;;;;;;5.77;4.80;;;;;;;;;;5013139;28;20419;-51